Time;durP1;ratioP1;P1;durP2;ratioP2;P2;SDS_P1;SDS_P2;PMS_P1;PMS_P2;Temp;Humidity;BMP_temperature;BMP_pressure;BME280_temperature;BME280_humidity;BME280_pressure;Samples;Min_cycle;Max_cycle;Signal;HPM_P1;HPM_P2
2022/05/15 00:02:21;;;;;;;6.57;4.67;;;10.50;99.90;;;;;;5020907;28;20186;-71
2022/05/15 00:04:46;;;;;;;5.03;4.10;;;10.50;99.90;;;;;;5031489;28;20434;-64
2022/05/15 00:07:12;;;;;;;6.87;4.37;;;10.50;99.90;;;;;;5031943;28;20182;-70
2022/05/15 00:09:38;;;;;;;7.47;5.83;;;10.50;99.90;;;;;;5025373;28;20454;-69
2022/05/15 00:12:05;;;;;;;5.60;4.33;;;10.40;99.90;;;;;;5033006;28;20766;-69
2022/05/15 00:14:32;;;;;;;5.73;3.93;;;10.40;99.90;;;;;;5031105;28;21010;-70
2022/05/15 00:16:57;;;;;;;10.53;4.83;;;10.40;99.90;;;;;;5032328;28;20426;-65
2022/05/15 00:19:23;;;;;;;8.10;4.97;;;10.40;99.90;;;;;;5016676;28;20906;-66
2022/05/15 00:21:49;;;;;;;7.30;4.50;;;10.40;99.90;;;;;;5031117;28;20183;-64
2022/05/15 00:24:14;;;;;;;13.10;5.70;;;10.40;99.90;;;;;;5032821;28;20168;-67
2022/05/15 00:26:40;;;;;;;5.33;3.77;;;10.40;99.90;;;;;;5028548;28;20309;-69
2022/05/15 00:29:06;;;;;;;8.13;3.90;;;10.40;99.90;;;;;;5027592;28;20560;-64
2022/05/15 00:31:32;;;;;;;5.47;4.83;;;10.40;99.90;;;;;;5031913;28;20176;-69
2022/05/15 00:33:57;;;;;;;5.47;4.07;;;10.40;99.90;;;;;;5032336;28;20733;-64
2022/05/15 00:36:23;;;;;;;6.80;3.90;;;10.30;99.90;;;;;;5026524;28;20483;-70
2022/05/15 00:38:49;;;;;;;10.37;4.53;;;10.30;99.90;;;;;;5028470;28;20198;-70
2022/05/15 00:41:15;;;;;;;8.23;4.13;;;10.20;99.90;;;;;;5030288;28;20168;-65
2022/05/15 00:43:41;;;;;;;10.23;4.80;;;10.20;99.90;;;;;;5033353;28;20165;-70
2022/05/15 00:46:14;;;;;;;6.57;4.40;;;10.10;99.90;;;;;;5028838;28;20420;-70
2022/05/15 00:48:39;;;;;;;15.00;4.07;;;10.00;99.90;;;;;;5031741;28;20203;-64
2022/05/15 00:51:31;;;;;;;12.87;3.83;;;10.00;99.90;;;;;;5031064;28;20437;-64
2022/05/15 00:54:31;;;;;;;12.80;5.37;;;10.00;99.90;;;;;;5032156;28;20180;-64
2022/05/15 00:57:05;;;;;;;6.50;4.10;;;9.90;99.90;;;;;;5031315;28;20940;-70
2022/05/15 00:59:40;;;;;;;5.60;4.13;;;9.90;99.90;;;;;;5029661;28;20454;-64
2022/05/15 01:02:08;;;;;;;7.57;4.67;;;9.80;99.90;;;;;;5030644;28;20424;-63
2022/05/15 01:04:34;;;;;;;7.03;4.20;;;9.80;99.90;;;;;;5030286;28;20426;-65
2022/05/15 01:07:02;;;;;;;7.70;4.13;;;9.70;99.90;;;;;;5034883;28;20412;-69
2022/05/15 01:09:28;;;;;;;7.67;4.03;;;9.70;99.90;;;;;;5036538;28;20663;-64
2022/05/15 01:11:55;;;;;;;9.93;4.87;;;9.70;99.90;;;;;;5032297;28;20421;-70
2022/05/15 01:14:22;;;;;;;5.10;3.97;;;9.60;99.90;;;;;;5031385;28;20438;-68
2022/05/15 01:16:48;;;;;;;14.03;4.87;;;9.60;99.90;;;;;;5026686;28;20450;-69
2022/05/15 01:19:14;;;;;;;11.10;4.80;;;9.60;99.90;;;;;;5032275;28;20806;-64
2022/05/15 01:22:08;;;;;;;7.13;4.63;;;9.50;99.90;;;;;;5034905;28;20555;-70
2022/05/15 01:24:34;;;;;;;7.60;3.90;;;9.50;99.90;;;;;;5035851;28;20429;-65
2022/05/15 01:27:07;;;;;;;6.70;4.30;;;9.50;99.90;;;;;;5033615;28;20791;-70
2022/05/15 01:29:36;;;;;;;4.50;3.03;;;9.40;99.90;;;;;;5030974;28;20192;-70
2022/05/15 01:32:03;;;;;;;6.43;3.83;;;9.40;99.90;;;;;;5034834;28;20944;-66
2022/05/15 01:34:29;;;;;;;7.00;4.27;;;9.40;99.90;;;;;;5034575;28;20413;-65
2022/05/15 01:36:55;;;;;;;7.53;5.53;;;9.30;99.90;;;;;;5032355;28;20465;-65
2022/05/15 01:39:21;;;;;;;5.27;3.93;;;9.30;99.90;;;;;;5033980;28;20195;-69
2022/05/15 01:41:47;;;;;;;4.27;3.77;;;9.30;99.90;;;;;;5035941;28;20423;-69
2022/05/15 01:44:12;;;;;;;8.80;4.00;;;9.30;99.90;;;;;;5033067;28;20584;-64
2022/05/15 01:46:38;;;;;;;3.80;3.50;;;9.20;99.90;;;;;;5035171;28;20445;-67
2022/05/15 01:49:06;;;;;;;4.50;3.47;;;9.20;99.90;;;;;;5023090;28;20206;-70
2022/05/15 01:51:33;;;;;;;6.27;4.27;;;9.20;99.90;;;;;;5030465;28;20459;-66
2022/05/15 01:54:00;;;;;;;8.60;3.70;;;9.20;99.90;;;;;;5035189;28;20798;-69
2022/05/15 01:56:26;;;;;;;5.70;4.50;;;9.10;99.90;;;;;;5026689;28;20465;-65
2022/05/15 01:58:52;;;;;;;7.70;5.53;;;9.10;99.90;;;;;;5033224;28;20460;-69
2022/05/15 02:01:17;;;;;;;4.10;3.80;;;9.10;99.90;;;;;;5035737;28;20182;-64
2022/05/15 02:03:43;;;;;;;5.80;3.80;;;9.10;99.90;;;;;;5031220;28;20654;-64
2022/05/15 02:06:09;;;;;;;5.83;4.10;;;9.10;99.90;;;;;;5035647;28;20536;-64
2022/05/15 02:08:35;;;;;;;6.40;3.90;;;9.00;99.90;;;;;;5033088;28;20240;-69
2022/05/15 02:11:02;;;;;;;5.03;3.30;;;9.00;99.90;;;;;;5034669;28;20430;-65
2022/05/15 02:13:27;;;;;;;4.93;4.07;;;9.00;99.90;;;;;;5034051;28;20418;-64
2022/05/15 02:15:53;;;;;;;4.37;4.00;;;8.90;99.90;;;;;;5032928;28;20473;-64
2022/05/15 02:18:19;;;;;;;7.73;4.00;;;8.90;99.90;;;;;;5033334;28;20540;-65
2022/05/15 02:20:44;;;;;;;11.63;4.60;;;8.80;99.90;;;;;;5032080;28;20214;-70
2022/05/15 02:23:10;;;;;;;8.33;4.60;;;8.70;99.90;;;;;;5035221;28;20171;-64
2022/05/15 02:25:38;;;;;;;8.13;4.80;;;8.80;99.90;;;;;;5034080;28;20177;-71
2022/05/15 02:28:03;;;;;;;5.97;4.37;;;8.70;99.90;;;;;;5027352;28;20530;-64
2022/05/15 02:30:29;;;;;;;5.80;4.53;;;8.70;99.90;;;;;;5030826;28;21004;-65
2022/05/15 02:32:55;;;;;;;5.57;4.93;;;8.70;99.90;;;;;;5035144;28;20403;-69
2022/05/15 02:35:21;;;;;;;4.77;4.30;;;8.70;99.90;;;;;;5034750;28;20353;-64
2022/05/15 02:37:47;;;;;;;11.90;6.47;;;8.70;99.90;;;;;;5032556;28;20201;-70
2022/05/15 02:40:14;;;;;;;7.40;4.67;;;8.60;99.90;;;;;;5034914;28;20649;-64
2022/05/15 02:42:40;;;;;;;5.07;4.63;;;8.60;99.90;;;;;;5033324;28;20429;-64
2022/05/15 02:45:06;;;;;;;8.37;5.17;;;8.60;99.90;;;;;;5033416;28;20924;-70
2022/05/15 02:47:32;;;;;;;8.13;4.07;;;8.60;99.90;;;;;;5031532;28;20176;-69
2022/05/15 02:52:42;;;;;;;5.40;4.37;;;8.50;99.90;;;;;;5017247;28;20426;-69
2022/05/15 02:55:08;;;;;;;6.10;4.40;;;8.40;99.90;;;;;;5031036;28;20454;-69
2022/05/15 02:57:34;;;;;;;9.90;4.60;;;8.40;99.90;;;;;;5033422;28;20178;-69
2022/05/15 02:59:59;;;;;;;9.33;4.40;;;8.40;99.90;;;;;;5033280;28;21682;-64
2022/05/15 03:02:25;;;;;;;6.47;5.30;;;8.30;99.90;;;;;;5034127;28;20160;-68
2022/05/15 03:04:51;;;;;;;9.87;5.80;;;8.30;99.90;;;;;;5033608;28;20168;-64
2022/05/15 03:07:17;;;;;;;6.80;5.13;;;8.30;99.90;;;;;;5032889;28;20181;-68
2022/05/15 03:09:43;;;;;;;11.47;5.73;;;8.30;99.90;;;;;;5033791;28;20410;-69
2022/05/15 03:12:09;;;;;;;6.90;5.50;;;8.30;99.90;;;;;;5031636;28;20435;-69
2022/05/15 03:14:35;;;;;;;6.63;5.90;;;8.30;99.90;;;;;;5032183;28;20190;-70
2022/05/15 03:17:00;;;;;;;20.03;6.97;;;8.30;99.90;;;;;;5032749;28;20550;-70
2022/05/15 03:19:26;;;;;;;12.93;7.90;;;8.30;99.90;;;;;;5032275;28;20737;-70
2022/05/15 03:21:52;;;;;;;6.03;5.50;;;8.40;99.90;;;;;;5031949;28;20182;-64
2022/05/15 03:24:19;;;;;;;15.00;5.20;;;8.50;99.90;;;;;;5033690;28;20249;-69
2022/05/15 03:26:47;;;;;;;7.83;5.10;;;8.50;1.00;;;;;;5029975;28;20436;-64
2022/05/15 03:29:15;;;;;;;4.83;4.40;;;8.40;99.90;;;;;;5033051;28;20456;-64
2022/05/15 03:31:41;;;;;;;8.93;5.00;;;8.20;99.90;;;;;;5030447;28;20424;-65
2022/05/15 03:34:09;;;;;;;12.60;5.43;;;8.10;99.90;;;;;;5032055;28;20941;-69
2022/05/15 03:36:36;;;;;;;4.57;4.17;;;8.10;99.90;;;;;;5032865;28;20463;-64
2022/05/15 03:39:03;;;;;;;9.40;5.40;;;8.10;99.90;;;;;;5031778;28;20451;-69
2022/05/15 03:41:28;;;;;;;6.50;4.80;;;8.10;99.90;;;;;;5033190;28;20397;-70
2022/05/15 03:43:54;;;;;;;8.97;5.80;;;8.10;99.90;;;;;;5031316;28;20764;-70
2022/05/15 03:46:20;;;;;;;7.00;5.53;;;8.00;99.90;;;;;;5033274;28;20169;-69
2022/05/15 03:48:45;;;;;;;8.50;5.60;;;8.00;99.90;;;;;;5031626;28;20270;-64
2022/05/15 03:51:11;;;;;;;9.17;6.00;;;8.00;99.90;;;;;;5033907;28;20203;-64
2022/05/15 03:53:37;;;;;;;8.87;5.07;;;8.00;99.90;;;;;;5032472;28;20210;-65
2022/05/15 03:56:04;;;;;;;6.63;5.93;;;8.10;99.90;;;;;;5032062;28;20251;-67
2022/05/15 03:58:32;;;;;;;7.80;5.80;;;8.00;99.90;;;;;;5029443;28;20957;-70
2022/05/15 04:00:58;;;;;;;10.10;6.07;;;8.00;99.90;;;;;;5031622;28;20487;-70
2022/05/15 04:03:23;;;;;;;8.07;5.57;;;8.10;99.90;;;;;;5033683;28;20400;-64
2022/05/15 04:05:49;;;;;;;6.93;5.63;;;8.10;99.90;;;;;;5031031;28;20201;-69
2022/05/15 04:08:15;;;;;;;7.00;5.47;;;8.10;99.90;;;;;;5031133;28;20211;-64
2022/05/15 04:10:40;;;;;;;7.70;5.60;;;8.10;99.90;;;;;;5031523;28;20205;-69
2022/05/15 04:13:06;;;;;;;5.77;5.17;;;8.10;99.90;;;;;;5032584;28;20442;-69
2022/05/15 04:15:33;;;;;;;7.60;5.60;;;8.00;99.90;;;;;;5033250;28;20274;-70
2022/05/15 04:17:59;;;;;;;10.77;6.50;;;8.00;99.90;;;;;;5029937;28;20442;-65
2022/05/15 04:20:28;;;;;;;11.13;6.07;;;8.10;99.90;;;;;;5032816;28;20429;-69
2022/05/15 04:22:54;;;;;;;5.90;5.50;;;8.10;99.90;;;;;;5031444;28;20422;-64
2022/05/15 04:25:20;;;;;;;4.83;4.50;;;8.20;1.00;;;;;;5033031;28;20404;-64
2022/05/15 04:27:47;;;;;;;5.63;5.13;;;8.30;1.00;;;;;;5030661;28;20460;-70
2022/05/15 04:30:17;;;;;;;7.77;5.40;;;8.40;1.00;;;;;;5032132;28;20977;-69
2022/05/15 04:32:42;;;;;;;6.00;5.50;;;8.50;1.00;;;;;;5036455;28;20416;-70
2022/05/15 04:35:09;;;;;;;5.77;5.30;;;8.50;1.00;;;;;;5034625;28;20463;-64
2022/05/15 04:37:36;;;;;;;5.33;5.03;;;8.60;1.00;;;;;;5028508;28;20180;-70
2022/05/15 04:40:02;;;;;;;4.47;4.17;;;8.60;1.00;;;;;;5034662;28;20430;-70
2022/05/15 04:42:28;;;;;;;4.53;4.23;;;8.70;1.00;;;;;;5034873;28;20421;-70
2022/05/15 04:44:54;;;;;;;5.03;4.60;;;8.70;1.00;;;;;;5034211;28;20429;-70
2022/05/15 04:47:19;;;;;;;4.43;4.03;;;8.80;1.00;;;;;;5035661;28;20905;-70
2022/05/15 04:49:45;;;;;;;5.37;4.90;;;8.80;1.00;;;;;;5036335;28;20450;-71
2022/05/15 04:52:11;;;;;;;5.57;5.07;;;8.80;1.00;;;;;;5035223;28;20225;-65
2022/05/15 04:54:37;;;;;;;4.70;4.40;;;8.90;1.00;;;;;;5036558;28;20194;-64
2022/05/15 04:57:04;;;;;;;6.40;5.90;;;9.00;1.00;;;;;;5034349;28;20466;-65
2022/05/15 04:59:29;;;;;;;4.73;4.30;;;9.00;1.00;;;;;;5031769;28;20846;-64
2022/05/15 05:01:55;;;;;;;5.33;4.93;;;9.10;1.00;;;;;;5024107;28;20429;-64
2022/05/15 05:04:21;;;;;;;4.90;4.50;;;9.10;1.00;;;;;;5036519;28;20185;-64
2022/05/15 05:06:47;;;;;;;10.30;7.00;;;9.10;1.00;;;;;;5034551;28;20244;-70
2022/05/15 05:09:13;;;;;;;8.00;6.30;;;9.20;1.00;;;;;;5036564;28;20427;-65
2022/05/15 05:11:39;;;;;;;7.67;6.30;;;9.30;1.00;;;;;;5035005;28;20575;-70
2022/05/15 05:14:05;;;;;;;6.67;6.07;;;9.30;1.00;;;;;;5033999;28;20205;-65
2022/05/15 05:16:33;;;;;;;6.40;5.60;;;9.40;1.00;;;;;;5035289;28;20949;-70
2022/05/15 05:18:59;;;;;;;8.77;5.70;;;9.60;1.00;;;;;;5034904;28;20197;-64
2022/05/15 05:21:24;;;;;;;5.43;5.10;;;9.60;1.00;;;;;;5036392;28;20428;-70
2022/05/15 05:23:50;;;;;;;6.47;4.83;;;9.70;1.00;;;;;;5034420;28;20401;-70
2022/05/15 05:26:16;;;;;;;5.63;5.13;;;9.70;1.00;;;;;;5035366;28;20651;-70
2022/05/15 05:28:42;;;;;;;6.33;5.67;;;9.70;1.00;;;;;;5035106;28;20195;-65
2022/05/15 05:31:07;;;;;;;8.00;5.00;;;9.70;1.00;;;;;;5033118;28;20186;-65
2022/05/15 05:33:34;;;;;;;6.60;5.00;;;9.70;1.00;;;;;;5036141;28;20179;-64
2022/05/15 05:36:00;;;;;;;5.67;5.17;;;9.70;1.00;;;;;;5034568;28;20253;-64
2022/05/15 05:38:25;;;;;;;9.30;5.70;;;9.80;1.00;;;;;;5028713;28;20439;-70
2022/05/15 05:40:51;;;;;;;13.10;4.80;;;9.80;1.00;;;;;;5022209;28;20926;-71
2022/05/15 05:43:17;;;;;;;5.80;4.77;;;9.90;1.00;;;;;;5035712;28;20189;-64
2022/05/15 05:45:43;;;;;;;6.23;5.03;;;9.90;1.00;;;;;;5034408;28;20198;-72
2022/05/15 05:48:09;;;;;;;4.80;4.40;;;10.00;1.00;;;;;;5025255;28;20202;-72
2022/05/15 05:50:36;;;;;;;6.07;4.73;;;10.20;1.00;;;;;;5035914;28;20187;-72
2022/05/15 05:53:02;;;;;;;5.53;5.00;;;10.30;1.00;;;;;;5034014;28;20408;-71
2022/05/15 05:55:27;;;;;;;10.70;5.17;;;10.30;1.00;;;;;;5035630;28;20486;-66
2022/05/15 05:57:53;;;;;;;11.17;4.97;;;10.40;1.00;;;;;;5033394;28;20233;-66
2022/05/15 06:00:27;;;;;;;8.37;5.00;;;10.50;1.00;;;;;;5033135;28;20275;-65
2022/05/15 06:04:38;;;;;;;6.23;5.27;;;10.60;1.00;;;;;;5031091;28;20636;-68
2022/05/15 06:05:38;;;;;;;9.47;5.67;;;10.60;1.00;;;;;;5028261;28;20413;-68
2022/05/15 06:08:04;;;;;;;9.93;4.90;;;10.60;1.00;;;;;;5015966;28;20410;-64
2022/05/15 06:10:29;;;;;;;5.67;5.13;;;10.70;1.00;;;;;;5035705;28;20176;-64
2022/05/15 06:12:55;;;;;;;6.33;4.80;;;10.80;1.00;;;;;;5035264;28;20184;-66
2022/05/15 06:15:21;;;;;;;16.93;5.30;;;11.00;1.00;;;;;;5035049;28;20222;-66
2022/05/15 06:17:46;;;;;;;10.73;5.50;;;11.10;1.00;;;;;;5033679;28;20214;-65
2022/05/15 06:20:12;;;;;;;6.40;5.50;;;11.20;1.00;;;;;;5035312;28;20575;-70
2022/05/15 06:22:38;;;;;;;9.80;5.33;;;11.30;1.00;;;;;;5034836;28;20202;-70
2022/05/15 06:25:04;;;;;;;10.17;6.30;;;11.30;1.00;;;;;;5034779;28;20167;-64
2022/05/15 06:27:29;;;;;;;16.70;5.90;;;11.40;1.00;;;;;;5034237;28;20230;-65
2022/05/15 06:29:58;;;;;;;11.53;5.60;;;11.50;1.00;;;;;;5033588;28;20389;-65
2022/05/15 06:32:25;;;;;;;8.43;4.90;;;11.60;1.00;;;;;;5034465;28;20247;-69
2022/05/15 06:34:50;;;;;;;5.23;4.73;;;11.60;1.00;;;;;;5034827;28;20410;-69
2022/05/15 06:37:16;;;;;;;10.67;4.70;;;11.70;1.00;;;;;;5032328;28;20423;-63
2022/05/15 06:39:42;;;;;;;10.00;5.07;;;11.80;1.00;;;;;;5037013;28;20254;-63
2022/05/15 06:42:08;;;;;;;11.70;4.77;;;11.90;1.00;;;;;;5034765;28;20203;-69
2022/05/15 06:44:33;;;;;;;5.73;4.60;;;12.00;1.00;;;;;;5039653;28;20632;-71
2022/05/15 06:46:59;;;;;;;5.43;4.67;;;12.10;1.00;;;;;;5045818;28;20399;-70
2022/05/15 06:49:25;;;;;;;8.07;4.20;;;12.20;1.00;;;;;;5034022;28;20210;-70
2022/05/15 06:51:50;;;;;;;7.40;5.10;;;12.20;1.00;;;;;;5032706;28;20171;-64
2022/05/15 06:54:17;;;;;;;5.80;5.30;;;12.30;1.00;;;;;;5034425;28;20517;-70
2022/05/15 06:59:26;;;;;;;7.73;4.13;;;12.50;1.00;;;;;;5034310;28;20392;-66
2022/05/15 07:01:52;;;;;;;11.63;5.20;;;12.60;1.00;;;;;;5034535;28;20418;-70
2022/05/15 07:04:17;;;;;;;5.97;4.00;;;12.70;1.00;;;;;;5034641;28;20179;-70
2022/05/15 07:06:43;;;;;;;7.63;3.70;;;12.70;1.00;;;;;;5032284;28;20182;-62
2022/05/15 07:09:08;;;;;;;8.00;4.10;;;12.70;1.00;;;;;;5034346;28;20194;-63
2022/05/15 07:11:34;;;;;;;8.00;3.57;;;12.80;1.00;;;;;;5034413;28;20616;-69
2022/05/15 07:14:00;;;;;;;4.80;3.40;;;12.80;1.00;;;;;;5032760;28;20172;-70
2022/05/15 07:16:25;;;;;;;5.37;2.90;;;12.90;1.00;;;;;;5034089;28;20294;-63
2022/05/15 07:18:51;;;;;;;6.83;3.67;;;13.10;1.00;;;;;;5031802;28;20723;-69
2022/05/15 07:21:17;;;;;;;8.73;4.30;;;13.20;1.00;;;;;;5034270;28;20171;-62
2022/05/15 07:23:42;;;;;;;7.70;3.40;;;13.30;1.00;;;;;;5034073;28;20171;-68
2022/05/15 07:26:08;;;;;;;6.00;3.20;;;13.20;1.00;;;;;;5034302;28;20210;-62
2022/05/15 07:28:34;;;;;;;3.67;3.17;;;13.20;1.00;;;;;;5033447;28;20191;-62
2022/05/15 07:30:59;;;;;;;9.07;3.47;;;13.30;1.00;;;;;;5033092;28;20294;-62
2022/05/15 07:33:26;;;;;;;5.80;3.23;;;13.50;1.00;;;;;;5033981;28;20168;-68
2022/05/15 07:35:55;;;;;;;7.93;3.70;;;13.60;99.90;;;;;;5033501;28;20238;-62
2022/05/15 07:38:20;;;;;;;6.60;3.63;;;13.70;99.90;;;;;;5033253;28;20426;-63
2022/05/15 07:40:46;;;;;;;3.47;2.90;;;13.70;99.90;;;;;;5033060;28;20883;-62
2022/05/15 07:43:12;;;;;;;4.83;3.23;;;13.80;99.90;;;;;;5033952;28;20179;-62
2022/05/15 07:45:39;;;;;;;8.60;3.60;;;13.90;99.90;;;;;;5033746;28;20171;-68
2022/05/15 07:48:06;;;;;;;4.70;3.37;;;14.00;99.90;;;;;;5033086;28;20480;-63
2022/05/15 07:50:33;;;;;;;7.43;3.30;;;14.10;99.90;;;;;;5033880;28;20740;-69
2022/05/15 07:52:59;;;;;;;3.53;2.53;;;14.20;99.90;;;;;;5033543;28;20408;-62
2022/05/15 07:55:24;;;;;;;4.30;3.10;;;14.40;99.90;;;;;;5033782;28;20500;-63
2022/05/15 07:57:50;;;;;;;8.33;4.40;;;14.60;99.90;;;;;;5032806;28;20793;-62
2022/05/15 08:00:17;;;;;;;7.03;3.67;;;14.70;99.90;;;;;;5033804;28;20168;-69
2022/05/15 08:02:43;;;;;;;5.43;4.03;;;14.70;99.90;;;;;;5033555;28;20175;-63
2022/05/15 08:08:02;;;;;;;6.53;3.50;;;14.70;99.90;;;;;;5032489;28;20441;-63
2022/05/15 08:10:34;;;;;;;6.40;3.20;;;14.70;99.90;;;;;;5031984;28;20865;-65
2022/05/15 08:13:00;;;;;;;4.97;2.87;;;14.70;99.90;;;;;;5032320;28;20414;-68
2022/05/15 08:15:27;;;;;;;7.20;4.63;;;14.80;99.90;;;;;;5032061;28;20879;-69
2022/05/15 08:17:54;;;;;;;6.70;4.63;;;14.90;99.90;;;;;;5032499;28;20540;-62
2022/05/15 08:25:49;;;;;;;6.80;3.13;;;15.10;99.90;;;;;;5033532;28;20405;-68
2022/05/15 08:28:15;;;;;;;6.73;3.90;;;15.30;99.90;;;;;;5031159;28;20529;-69
2022/05/15 08:30:41;;;;;;;5.67;3.57;;;15.40;99.90;;;;;;5033451;28;20251;-63
2022/05/15 08:33:09;;;;;;;6.67;3.67;;;15.40;99.90;;;;;;5032058;28;20842;-68
2022/05/15 08:35:35;;;;;;;6.93;3.00;;;15.50;99.90;;;;;;5033191;28;20461;-62
2022/05/15 08:38:00;;;;;;;8.93;4.13;;;15.60;99.90;;;;;;5032384;28;20502;-68
2022/05/15 08:40:32;;;;;;;7.80;3.77;;;15.60;99.90;;;;;;5033201;28;20365;-63
2022/05/15 08:42:59;;;;;;;8.83;4.00;;;15.70;99.90;;;;;;5033393;28;20171;-68
2022/05/15 08:45:29;;;;;;;5.17;4.57;;;15.80;99.90;;;;;;5033266;28;20431;-63
2022/05/15 08:48:04;;;;;;;11.90;4.87;;;15.80;99.90;;;;;;5031023;28;20445;-63
2022/05/15 08:50:34;;;;;;;8.40;3.80;;;15.90;99.90;;;;;;5033151;28;20782;-67
2022/05/15 08:53:04;;;;;;;7.63;3.57;;;16.10;99.90;;;;;;5033218;28;20385;-62
2022/05/15 08:55:39;;;;;;;8.93;4.07;;;16.10;99.90;;;;;;5033052;28;20949;-68
2022/05/15 08:58:09;;;;;;;3.67;2.70;;;16.20;99.90;;;;;;5032405;28;20914;-62
2022/05/15 09:00:50;;;;;;;4.83;3.60;;;16.30;99.90;;;;;;5031693;28;20414;-69
2022/05/15 09:03:31;;;;;;;6.20;3.60;;;16.40;99.90;;;;;;5033197;28;20406;-69
2022/05/15 09:06:06;;;;;;;11.50;4.10;;;16.70;99.90;;;;;;5032615;28;20403;-62
2022/05/15 09:08:50;;;;;;;4.90;3.30;;;17.00;99.90;;;;;;5032110;28;20430;-69
2022/05/15 09:11:42;;;;;;;4.03;2.83;;;17.30;99.90;;;;;;5033011;28;20425;-69
2022/05/15 09:14:35;;;;;;;4.20;3.23;;;17.40;99.90;;;;;;5032683;28;20381;-63
2022/05/15 09:17:11;;;;;;;5.73;3.53;;;17.60;99.90;;;;;;5032262;28;20450;-62
2022/05/15 09:19:37;;;;;;;2.63;2.43;;;17.90;99.90;;;;;;5035446;28;20432;-69
2022/05/15 09:22:05;;;;;;;3.23;2.50;;;17.90;99.90;;;;;;5036112;28;20432;-63
2022/05/15 09:24:53;;;;;;;8.47;2.90;;;17.80;99.90;;;;;;5036397;28;20406;-63
2022/05/15 09:27:23;;;;;;;6.30;3.17;;;18.10;99.90;;;;;;5035731;28;20394;-62
2022/05/15 09:29:57;;;;;;;5.30;2.33;;;18.20;99.90;;;;;;5036465;28;20411;-62
2022/05/15 09:32:39;;;;;;;4.23;2.77;;;18.20;99.90;;;;;;5036219;28;20905;-65
2022/05/15 09:35:26;;;;;;;2.93;2.67;;;18.30;99.90;;;;;;5036327;28;20394;-68
2022/05/15 09:43:30;;;;;;;3.23;2.67;;;19.00;99.90;;;;;;5036344;28;20537;-69
2022/05/15 09:43:33;;;;;;;1.83;1.73;;;19.50;99.90;;;;;;5036154;28;20410;-63
2022/05/15 09:46:10;;;;;;;3.10;1.70;;;20.30;99.90;;;;;;5036154;28;20405;-69
2022/05/15 09:48:49;;;;;;;2.20;1.57;;;20.90;96.10;;;;;;5035497;28;20575;-64
2022/05/15 09:51:34;;;;;;;2.10;1.30;;;21.20;96.20;;;;;;5036339;28;20941;-69
2022/05/15 09:54:00;;;;;;;2.17;1.43;;;21.80;96.40;;;;;;5035884;28;20885;-64
2022/05/15 09:56:31;;;;;;;3.00;1.43;;;22.30;92.90;;;;;;5035434;28;20446;-64
2022/05/15 09:59:15;;;;;;;1.60;1.43;;;22.40;89.60;;;;;;5035855;28;20454;-63
2022/05/15 10:01:55;;;;;;;2.50;1.70;;;22.30;76.70;;;;;;5036028;28;20402;-69
2022/05/15 10:04:24;;;;;;;2.33;2.13;;;22.50;66.60;;;;;;5035737;28;20406;-69
2022/05/15 10:07:02;;;;;;;2.27;1.30;;;22.60;61.00;;;;;;5035045;28;20406;-63
2022/05/15 10:09:34;;;;;;;1.70;1.60;;;22.90;54.60;;;;;;5035795;28;20422;-70
2022/05/15 10:12:30;;;;;;;1.73;1.40;;;23.40;50.00;;;;;;5035700;28;20406;-70
2022/05/15 10:14:59;;;;;;;2.33;1.53;;;23.80;46.60;;;;;;5034935;28;20491;-70
2022/05/15 10:17:27;;;;;;;1.50;1.33;;;24.20;36.40;;;;;;5035003;28;20767;-70
2022/05/15 10:20:15;;;;;;;1.90;1.10;;;24.20;28.70;;;;;;5034229;28;20402;-63
2022/05/15 10:23:14;;;;;;;3.97;1.60;;;24.20;23.20;;;;;;5034751;28;20786;-68
2022/05/15 10:25:54;;;;;;;2.47;1.97;;;24.30;23.40;;;;;;5034411;28;20410;-63
2022/05/15 10:28:25;;;;;;;1.53;1.43;;;23.90;19.30;;;;;;5034170;28;20956;-64
2022/05/15 10:31:28;;;;;;;2.07;1.30;;;24.00;15.70;;;;;;5034869;28;20452;-70
2022/05/15 10:34:00;;;;;;;2.20;1.33;;;24.00;9.60;;;;;;5034642;28;20426;-69
2022/05/15 10:37:04;;;;;;;3.23;1.57;;;24.40;4.70;;;;;;5033702;28;20468;-64
2022/05/15 10:39:55;;;;;;;3.67;2.00;;;24.80;1.40;;;;;;5015235;28;20439;-69
2022/05/15 10:42:26;;;;;;;1.20;1.10;;;24.90;1.00;;;;;;5017211;28;20411;-64
2022/05/15 10:45:18;;;;;;;4.10;1.50;;;25.10;1.00;;;;;;5034818;28;20471;-64
2022/05/15 10:47:50;;;;;;;2.03;1.10;;;24.70;1.00;;;;;;5032911;28;20798;-63
2022/05/15 10:50:48;;;;;;;1.60;1.40;;;24.30;1.00;;;;;;5034879;28;20398;-63
2022/05/15 10:59:53;;;;;;;1.77;1.17;;;25.10;1.00;;;;;;5032674;28;20973;-70
2022/05/15 11:03:06;;;;;;;2.07;1.43;;;25.70;1.00;;;;;;5034775;28;20417;-63
2022/05/15 11:05:34;;;;;;;1.27;0.87;;;25.90;1.00;;;;;;5032971;28;20520;-71
2022/05/15 11:08:23;;;;;;;2.10;1.27;;;26.50;1.00;;;;;;5033561;28;20430;-71
2022/05/15 11:11:25;;;;;;;2.43;1.33;;;26.70;1.00;;;;;;5033254;28;20414;-63
2022/05/15 11:14:10;;;;;;;3.00;1.00;;;27.30;1.00;;;;;;5034650;28;20463;-70
2022/05/15 11:16:49;;;;;;;1.10;0.93;;;27.70;1.00;;;;;;5033085;28;20483;-63
2022/05/15 11:19:46;;;;;;;1.40;1.27;;;27.50;1.00;;;;;;5034011;28;20426;-69
2022/05/15 11:22:19;;;;;;;1.60;1.07;;;27.10;1.00;;;;;;5013826;28;20423;-63
2022/05/15 11:24:59;;;;;;;4.40;1.10;;;26.90;1.00;;;;;;5029810;28;20820;-70
2022/05/15 11:27:30;;;;;;;1.60;1.37;;;27.10;1.00;;;;;;5013416;28;20443;-64
2022/05/15 11:29:59;;;;;;;3.83;2.23;;;27.60;1.00;;;;;;5022924;28;20417;-70
2022/05/15 11:32:33;;;;;;;1.83;1.27;;;27.80;1.00;;;;;;5034204;28;20403;-63
2022/05/15 11:35:13;;;;;;;1.50;1.13;;;27.60;1.00;;;;;;5033467;28;20429;-68
2022/05/15 11:37:38;;;;;;;2.77;1.67;;;27.20;1.00;;;;;;5032997;28;20434;-71
2022/05/15 11:40:25;;;;;;;1.93;1.20;;;27.70;1.00;;;;;;5033814;28;20436;-64
2022/05/15 11:42:51;;;;;;;3.20;1.33;;;28.50;1.00;;;;;;5028336;28;20190;-63
2022/05/15 11:45:49;;;;;;;3.67;1.30;;;28.50;1.00;;;;;;5033652;28;20414;-71
2022/05/15 11:48:17;;;;;;;2.07;1.20;;;28.20;1.00;;;;;;5032369;28;20282;-63
2022/05/15 11:50:49;;;;;;;2.17;1.37;;;27.90;1.00;;;;;;5033418;28;20419;-63
2022/05/15 11:53:43;;;;;;;1.00;0.87;;;27.40;1.00;;;;;;5033782;28;20421;-64
2022/05/15 11:56:36;;;;;;;5.00;0.97;;;27.50;1.00;;;;;;5032707;28;20462;-71
2022/05/15 11:59:03;;;;;;;1.50;1.20;;;27.90;1.00;;;;;;5034227;28;20521;-70
2022/05/15 12:01:32;;;;;;;2.53;1.10;;;28.10;1.00;;;;;;5033384;28;20422;-64
2022/05/15 12:04:25;;;;;;;1.30;0.87;;;28.20;1.00;;;;;;5033682;28;20411;-63
2022/05/15 12:06:57;;;;;;;2.70;1.13;;;28.70;1.00;;;;;;5011699;28;20753;-64
2022/05/15 12:09:30;;;;;;;1.57;1.07;;;28.90;1.00;;;;;;5013247;28;20772;-64
2022/05/15 12:12:16;;;;;;;1.80;1.07;;;29.40;1.00;;;;;;5013883;28;20490;-70
2022/05/15 12:15:10;;;;;;;2.60;1.20;;;29.50;1.00;;;;;;5015442;28;20923;-72
2022/05/15 12:17:42;;;;;;;1.40;1.10;;;30.10;1.00;;;;;;5032490;28;20755;-73
2022/05/15 12:20:30;;;;;;;1.23;0.70;;;30.00;1.00;;;;;;5033335;28;20877;-72
2022/05/15 12:22:57;;;;;;;2.17;1.00;;;29.10;1.00;;;;;;5033404;28;20437;-66
2022/05/15 12:25:29;;;;;;;2.03;1.30;;;29.00;1.00;;;;;;5033197;28;20410;-73
2022/05/15 12:31:11;;;;;;;2.13;0.87;;;29.90;1.00;;;;;;5033070;28;20409;-74
2022/05/15 12:33:40;;;;;;;1.23;1.00;;;30.10;1.00;;;;;;5033180;28;20409;-72
2022/05/15 12:36:17;;;;;;;1.60;0.80;;;30.20;1.00;;;;;;5032440;28;20980;-74
2022/05/15 12:38:46;;;;;;;1.93;1.67;;;30.40;1.00;;;;;;5032267;28;20441;-72
2022/05/15 12:41:20;;;;;;;3.40;0.97;;;30.60;1.00;;;;;;5033249;28;20452;-68
2022/05/15 12:43:50;;;;;;;3.60;0.87;;;30.50;1.00;;;;;;5030903;28;20437;-65
2022/05/15 12:46:52;;;;;;;1.30;0.80;;;30.10;1.00;;;;;;5032895;28;20406;-72
2022/05/15 12:49:32;;;;;;;1.10;0.80;;;29.30;1.00;;;;;;5015396;28;20496;-71
2022/05/15 12:52:25;;;;;;;1.47;1.03;;;28.80;1.00;;;;;;5032805;28;20434;-64
2022/05/15 12:54:59;;;;;;;1.00;0.70;;;28.30;1.00;;;;;;5036815;28;20432;-64
2022/05/15 12:57:25;;;;;;;3.00;1.30;;;27.70;1.00;;;;;;5036008;28;20472;-68
2022/05/15 12:59:52;;;;;;;3.33;1.20;;;27.40;1.00;;;;;;5036702;28;20802;-70
2022/05/15 13:02:37;;;;;;;2.07;1.10;;;27.20;1.00;;;;;;5036058;28;20418;-69
2022/05/15 13:05:28;;;;;;;3.00;1.33;;;26.90;1.00;;;;;;5036794;28;20958;-65
2022/05/15 13:08:00;;;;;;;1.53;0.87;;;26.10;1.00;;;;;;5035463;28;20445;-66
2022/05/15 13:10:28;;;;;;;2.80;1.57;;;25.60;1.00;;;;;;5036411;28;20949;-71
2022/05/15 13:13:18;;;;;;;1.57;0.90;;;25.40;1.00;;;;;;5035476;28;20436;-67
2022/05/15 13:15:49;;;;;;;1.90;1.60;;;24.70;1.00;;;;;;5036150;28;20957;-72
2022/05/15 13:18:16;;;;;;;2.50;1.43;;;24.20;1.00;;;;;;5035023;28;20426;-65
2022/05/15 13:20:46;;;;;;;3.67;1.20;;;24.00;1.00;;;;;;5036414;28;20876;-71
2022/05/15 13:23:13;;;;;;;1.20;1.10;;;24.00;1.00;;;;;;5036245;28;20453;-64
2022/05/15 13:25:42;;;;;;;1.97;1.30;;;24.00;1.00;;;;;;5036567;28;20466;-66
2022/05/15 13:28:09;;;;;;;2.43;1.50;;;24.20;1.00;;;;;;5034575;28;20437;-71
2022/05/15 13:30:36;;;;;;;2.13;1.30;;;24.70;1.00;;;;;;5026828;28;20414;-64
2022/05/15 13:33:06;;;;;;;2.30;1.70;;;25.10;1.00;;;;;;5016401;28;20411;-73
2022/05/15 13:35:52;;;;;;;3.20;1.90;;;25.80;1.00;;;;;;5028985;28;20453;-71
2022/05/15 13:38:18;;;;;;;2.67;1.50;;;26.30;1.00;;;;;;5035166;28;20437;-74
2022/05/15 13:43:36;;;;;;;2.70;1.50;;;27.70;1.00;;;;;;5036513;28;20267;-66